createdAt,value
2015-12-14T09:04:33.589Z,2.3
2015-12-14T09:06:35.689Z,2.3
2015-12-14T09:08:37.272Z,2.3
2015-12-14T09:09:38.056Z,2.3
2015-12-14T09:10:38.981Z,2.3
2015-12-14T09:11:39.656Z,2.3
2015-12-14T09:12:40.517Z,2.4
2015-12-14T20:26:14.827Z,3.5
2015-12-14T20:27:15.565Z,3.5
2015-12-14T20:28:16.353Z,3.5
2015-12-14T20:30:17.927Z,3.5
2015-12-14T20:32:19.484Z,3.5
2015-12-14T20:33:20.280Z,4.9
2015-12-14T20:34:22.125Z,5.3
2015-12-14T20:35:23.875Z,5.1
2015-12-14T20:36:26.188Z,4.9
2015-12-14T20:37:28.518Z,4.6
2015-12-14T20:38:30.847Z,4.4
2015-12-14T20:39:29.567Z,4.3
2015-12-14T20:40:28.319Z,4.1
2015-12-14T20:41:27.618Z,4.1
2015-12-14T20:42:26.792Z,4
2015-12-14T20:43:26.294Z,3.9
2015-12-14T20:44:26.110Z,3.9
2015-12-14T20:45:27.862Z,3.8
2015-12-14T20:46:27.645Z,3.7
2015-12-14T20:47:27.382Z,3.7
2015-12-14T20:48:27.401Z,3.7
2015-12-14T20:49:27.419Z,3.7
2015-12-14T20:50:27.828Z,3.7
2015-12-14T20:51:27.956Z,3.7
2015-12-14T20:52:28.255Z,3.6
2015-12-14T20:53:28.524Z,3.6
2015-12-14T20:54:28.854Z,3.6
2015-12-14T20:55:30.592Z,3.6
2015-12-14T20:56:30.892Z,3.6
2015-12-14T20:57:31.394Z,3.6
2015-12-14T20:58:31.928Z,3.6
2015-12-14T20:59:32.461Z,3.6
2015-12-14T21:00:32.980Z,3.6
2015-12-14T21:01:36.531Z,3.6
2015-12-14T21:02:34.046Z,3.6
2015-12-14T21:03:34.830Z,3.6
2015-12-14T21:04:35.414Z,3.6
2015-12-14T21:05:37.167Z,3.6
2015-12-14T21:06:37.716Z,3.6
2015-12-14T21:07:38.219Z,3.6
2015-12-14T21:08:39.003Z,3.6
2015-12-14T21:10:40.054Z,3.6
2015-12-14T21:11:40.619Z,3.6
